sensor_id;sensor_type;location;lat;lon;timestamp;P1;durP1;ratioP1;P2;durP2;ratioP2
28653;SDS011;24320;56.980;24.336;2022-07-18T00:00:05;3.03;;;1.70;;
28653;SDS011;24320;56.980;24.336;2022-07-18T00:02:35;2.67;;;1.88;;
28653;SDS011;24320;56.980;24.336;2022-07-18T00:05:02;1.77;;;1.30;;
28653;SDS011;24320;56.980;24.336;2022-07-18T00:07:30;1.60;;;1.30;;
28653;SDS011;24320;56.980;24.336;2022-07-18T00:09:57;2.42;;;1.92;;
28653;SDS011;24320;56.980;24.336;2022-07-18T00:12:24;2.90;;;1.23;;
28653;SDS011;24320;56.980;24.336;2022-07-18T00:14:51;1.73;;;1.40;;
28653;SDS011;24320;56.980;24.336;2022-07-18T00:17:18;2.40;;;1.40;;
28653;SDS011;24320;56.980;24.336;2022-07-18T00:19:45;2.47;;;1.42;;
28653;SDS011;24320;56.980;24.336;2022-07-18T00:22:12;1.70;;;1.40;;
28653;SDS011;24320;56.980;24.336;2022-07-18T00:24:39;2.83;;;1.55;;
28653;SDS011;24320;56.980;24.336;2022-07-18T00:27:06;3.60;;;1.58;;
28653;SDS011;24320;56.980;24.336;2022-07-18T00:29:34;6.38;;;1.50;;
28653;SDS011;24320;56.980;24.336;2022-07-18T00:32:06;4.05;;;1.50;;
28653;SDS011;24320;56.980;24.336;2022-07-18T00:34:34;6.60;;;1.65;;
28653;SDS011;24320;56.980;24.336;2022-07-18T00:37:01;2.88;;;1.70;;
28653;SDS011;24320;56.980;24.336;2022-07-18T00:39:28;4.97;;;1.52;;
28653;SDS011;24320;56.980;24.336;2022-07-18T00:41:56;3.53;;;1.50;;
28653;SDS011;24320;56.980;24.336;2022-07-18T00:44:24;6.07;;;1.70;;
28653;SDS011;24320;56.980;24.336;2022-07-18T00:46:52;5.30;;;1.48;;
28653;SDS011;24320;56.980;24.336;2022-07-18T00:49:20;4.43;;;1.58;;
28653;SDS011;24320;56.980;24.336;2022-07-18T00:51:47;6.00;;;1.60;;
28653;SDS011;24320;56.980;24.336;2022-07-18T00:54:15;9.82;;;2.20;;
28653;SDS011;24320;56.980;24.336;2022-07-18T00:56:43;2.03;;;1.50;;
28653;SDS011;24320;56.980;24.336;2022-07-18T00:59:11;6.55;;;1.70;;
28653;SDS011;24320;56.980;24.336;2022-07-18T01:01:39;5.95;;;2.05;;
28653;SDS011;24320;56.980;24.336;2022-07-18T01:04:10;4.35;;;1.75;;
28653;SDS011;24320;56.980;24.336;2022-07-18T01:06:43;3.33;;;1.60;;
28653;SDS011;24320;56.980;24.336;2022-07-18T01:09:10;2.28;;;1.60;;
28653;SDS011;24320;56.980;24.336;2022-07-18T01:11:37;3.28;;;1.75;;
28653;SDS011;24320;56.980;24.336;2022-07-18T01:14:05;4.15;;;2.10;;
28653;SDS011;24320;56.980;24.336;2022-07-18T01:16:33;3.50;;;2.30;;
28653;SDS011;24320;56.980;24.336;2022-07-18T01:19:00;4.30;;;2.35;;
28653;SDS011;24320;56.980;24.336;2022-07-18T01:21:28;4.15;;;2.22;;
28653;SDS011;24320;56.980;24.336;2022-07-18T01:23:55;5.10;;;2.30;;
28653;SDS011;24320;56.980;24.336;2022-07-18T01:26:22;3.72;;;2.15;;
28653;SDS011;24320;56.980;24.336;2022-07-18T01:28:50;5.28;;;2.67;;
28653;SDS011;24320;56.980;24.336;2022-07-18T01:31:17;6.40;;;2.40;;
28653;SDS011;24320;56.980;24.336;2022-07-18T01:33:44;6.22;;;2.30;;
28653;SDS011;24320;56.980;24.336;2022-07-18T01:36:11;4.60;;;2.20;;
28653;SDS011;24320;56.980;24.336;2022-07-18T01:38:38;4.47;;;2.10;;
28653;SDS011;24320;56.980;24.336;2022-07-18T01:41:06;11.57;;;2.55;;
28653;SDS011;24320;56.980;24.336;2022-07-18T01:43:33;4.70;;;2.42;;
28653;SDS011;24320;56.980;24.336;2022-07-18T01:46:00;4.35;;;2.45;;
28653;SDS011;24320;56.980;24.336;2022-07-18T01:48:29;6.53;;;2.60;;
28653;SDS011;24320;56.980;24.336;2022-07-18T01:50:56;7.03;;;2.42;;
28653;SDS011;24320;56.980;24.336;2022-07-18T01:53:23;4.55;;;3.10;;
28653;SDS011;24320;56.980;24.336;2022-07-18T01:55:51;5.10;;;2.80;;
28653;SDS011;24320;56.980;24.336;2022-07-18T01:58:18;5.57;;;3.00;;
28653;SDS011;24320;56.980;24.336;2022-07-18T02:00:45;10.63;;;2.60;;
28653;SDS011;24320;56.980;24.336;2022-07-18T02:03:12;2.55;;;2.35;;
28653;SDS011;24320;56.980;24.336;2022-07-18T02:05:39;8.20;;;2.75;;
28653;SDS011;24320;56.980;24.336;2022-07-18T02:08:06;11.80;;;3.00;;
28653;SDS011;24320;56.980;24.336;2022-07-18T02:10:33;6.72;;;3.25;;
28653;SDS011;24320;56.980;24.336;2022-07-18T02:13:00;7.07;;;3.30;;
28653;SDS011;24320;56.980;24.336;2022-07-18T02:15:27;7.25;;;3.28;;
28653;SDS011;24320;56.980;24.336;2022-07-18T02:17:54;7.00;;;2.90;;
28653;SDS011;24320;56.980;24.336;2022-07-18T02:20:21;7.82;;;3.00;;
28653;SDS011;24320;56.980;24.336;2022-07-18T02:22:48;8.23;;;3.22;;
28653;SDS011;24320;56.980;24.336;2022-07-18T02:25:15;6.63;;;2.97;;
28653;SDS011;24320;56.980;24.336;2022-07-18T02:27:42;5.38;;;2.88;;
28653;SDS011;24320;56.980;24.336;2022-07-18T02:30:10;7.97;;;3.10;;
28653;SDS011;24320;56.980;24.336;2022-07-18T02:32:38;8.38;;;3.13;;
28653;SDS011;24320;56.980;24.336;2022-07-18T02:35:06;16.77;;;2.78;;
28653;SDS011;24320;56.980;24.336;2022-07-18T02:37:36;8.80;;;2.83;;
28653;SDS011;24320;56.980;24.336;2022-07-18T02:40:06;9.43;;;2.90;;
28653;SDS011;24320;56.980;24.336;2022-07-18T02:42:34;13.23;;;3.55;;
28653;SDS011;24320;56.980;24.336;2022-07-18T02:45:02;7.15;;;2.20;;
28653;SDS011;24320;56.980;24.336;2022-07-18T02:47:32;8.50;;;2.88;;
28653;SDS011;24320;56.980;24.336;2022-07-18T02:49:59;8.90;;;2.58;;
28653;SDS011;24320;56.980;24.336;2022-07-18T02:52:26;5.53;;;3.03;;
28653;SDS011;24320;56.980;24.336;2022-07-18T02:54:53;9.05;;;2.53;;
28653;SDS011;24320;56.980;24.336;2022-07-18T02:57:23;7.68;;;2.88;;
28653;SDS011;24320;56.980;24.336;2022-07-18T02:59:50;5.35;;;2.72;;
28653;SDS011;24320;56.980;24.336;2022-07-18T03:02:17;5.20;;;2.70;;
28653;SDS011;24320;56.980;24.336;2022-07-18T03:04:44;8.30;;;2.85;;
28653;SDS011;24320;56.980;24.336;2022-07-18T03:07:11;8.40;;;3.20;;
28653;SDS011;24320;56.980;24.336;2022-07-18T03:09:38;10.38;;;3.15;;
28653;SDS011;24320;56.980;24.336;2022-07-18T03:12:05;10.57;;;3.03;;
28653;SDS011;24320;56.980;24.336;2022-07-18T03:14:33;7.05;;;3.33;;
28653;SDS011;24320;56.980;24.336;2022-07-18T03:17:00;11.35;;;3.20;;
28653;SDS011;24320;56.980;24.336;2022-07-18T03:19:28;7.00;;;3.13;;
28653;SDS011;24320;56.980;24.336;2022-07-18T03:21:55;3.88;;;2.42;;
28653;SDS011;24320;56.980;24.336;2022-07-18T03:24:22;6.20;;;2.80;;
28653;SDS011;24320;56.980;24.336;2022-07-18T03:26:49;7.00;;;3.17;;
28653;SDS011;24320;56.980;24.336;2022-07-18T03:29:16;5.43;;;2.40;;
28653;SDS011;24320;56.980;24.336;2022-07-18T03:31:43;9.73;;;2.72;;
28653;SDS011;24320;56.980;24.336;2022-07-18T03:34:10;9.93;;;2.70;;
28653;SDS011;24320;56.980;24.336;2022-07-18T03:36:37;5.63;;;2.67;;
28653;SDS011;24320;56.980;24.336;2022-07-18T03:39:05;7.95;;;2.45;;
28653;SDS011;24320;56.980;24.336;2022-07-18T03:41:33;5.20;;;2.45;;
28653;SDS011;24320;56.980;24.336;2022-07-18T03:44:00;8.70;;;2.40;;
28653;SDS011;24320;56.980;24.336;2022-07-18T03:46:27;6.57;;;2.92;;
28653;SDS011;24320;56.980;24.336;2022-07-18T03:48:55;10.77;;;2.60;;
28653;SDS011;24320;56.980;24.336;2022-07-18T03:51:23;11.65;;;2.83;;
28653;SDS011;24320;56.980;24.336;2022-07-18T03:53:50;6.82;;;3.03;;
28653;SDS011;24320;56.980;24.336;2022-07-18T03:56:17;7.13;;;2.83;;
28653;SDS011;24320;56.980;24.336;2022-07-18T03:58:44;8.43;;;2.90;;
28653;SDS011;24320;56.980;24.336;2022-07-18T04:01:12;6.70;;;2.60;;
28653;SDS011;24320;56.980;24.336;2022-07-18T04:03:40;8.95;;;2.63;;
28653;SDS011;24320;56.980;24.336;2022-07-18T04:06:07;4.30;;;2.65;;
28653;SDS011;24320;56.980;24.336;2022-07-18T04:08:34;5.70;;;2.75;;
28653;SDS011;24320;56.980;24.336;2022-07-18T04:11:01;9.35;;;2.90;;
28653;SDS011;24320;56.980;24.336;2022-07-18T04:13:28;7.57;;;2.67;;
28653;SDS011;24320;56.980;24.336;2022-07-18T04:15:55;15.48;;;3.10;;
28653;SDS011;24320;56.980;24.336;2022-07-18T04:18:22;8.55;;;2.78;;
28653;SDS011;24320;56.980;24.336;2022-07-18T04:20:49;6.32;;;2.75;;
28653;SDS011;24320;56.980;24.336;2022-07-18T04:23:16;7.90;;;2.75;;
28653;SDS011;24320;56.980;24.336;2022-07-18T04:25:44;13.10;;;3.40;;
28653;SDS011;24320;56.980;24.336;2022-07-18T04:28:12;6.20;;;2.92;;
28653;SDS011;24320;56.980;24.336;2022-07-18T04:30:40;9.18;;;2.83;;
28653;SDS011;24320;56.980;24.336;2022-07-18T04:33:09;5.93;;;2.78;;
28653;SDS011;24320;56.980;24.336;2022-07-18T04:35:37;5.30;;;3.20;;
28653;SDS011;24320;56.980;24.336;2022-07-18T04:38:05;8.65;;;3.20;;
28653;SDS011;24320;56.980;24.336;2022-07-18T04:40:34;8.38;;;2.70;;
28653;SDS011;24320;56.980;24.336;2022-07-18T04:43:01;4.25;;;2.70;;
28653;SDS011;24320;56.980;24.336;2022-07-18T04:45:29;4.57;;;2.53;;
28653;SDS011;24320;56.980;24.336;2022-07-18T04:47:56;4.82;;;3.22;;
28653;SDS011;24320;56.980;24.336;2022-07-18T04:50:23;8.15;;;3.13;;
28653;SDS011;24320;56.980;24.336;2022-07-18T04:52:51;10.57;;;3.70;;
28653;SDS011;24320;56.980;24.336;2022-07-18T04:55:19;8.82;;;2.85;;
28653;SDS011;24320;56.980;24.336;2022-07-18T04:57:48;6.03;;;3.25;;
28653;SDS011;24320;56.980;24.336;2022-07-18T05:00:16;5.78;;;2.92;;
28653;SDS011;24320;56.980;24.336;2022-07-18T05:02:46;5.32;;;3.05;;
28653;SDS011;24320;56.980;24.336;2022-07-18T05:05:15;14.98;;;3.10;;
28653;SDS011;24320;56.980;24.336;2022-07-18T05:07:44;5.55;;;2.85;;
28653;SDS011;24320;56.980;24.336;2022-07-18T05:10:13;6.57;;;3.25;;
28653;SDS011;24320;56.980;24.336;2022-07-18T05:12:43;6.18;;;2.83;;
28653;SDS011;24320;56.980;24.336;2022-07-18T05:15:11;8.63;;;2.90;;
28653;SDS011;24320;56.980;24.336;2022-07-18T05:17:40;13.80;;;3.22;;
28653;SDS011;24320;56.980;24.336;2022-07-18T05:20:09;9.98;;;3.38;;
28653;SDS011;24320;56.980;24.336;2022-07-18T05:22:38;7.05;;;2.58;;
28653;SDS011;24320;56.980;24.336;2022-07-18T05:25:06;17.80;;;3.58;;
28653;SDS011;24320;56.980;24.336;2022-07-18T05:27:34;6.38;;;2.75;;
28653;SDS011;24320;56.980;24.336;2022-07-18T05:30:02;10.20;;;2.85;;
28653;SDS011;24320;56.980;24.336;2022-07-18T05:32:31;9.88;;;2.88;;
28653;SDS011;24320;56.980;24.336;2022-07-18T05:34:58;9.45;;;3.00;;
28653;SDS011;24320;56.980;24.336;2022-07-18T05:37:25;8.90;;;3.08;;
28653;SDS011;24320;56.980;24.336;2022-07-18T05:39:52;13.80;;;3.45;;
28653;SDS011;24320;56.980;24.336;2022-07-18T05:42:19;8.02;;;2.75;;
28653;SDS011;24320;56.980;24.336;2022-07-18T05:45:06;6.10;;;3.00;;
28653;SDS011;24320;56.980;24.336;2022-07-18T05:47:34;6.07;;;3.00;;
28653;SDS011;24320;56.980;24.336;2022-07-18T05:50:01;10.50;;;2.75;;
28653;SDS011;24320;56.980;24.336;2022-07-18T05:52:30;6.57;;;2.90;;
28653;SDS011;24320;56.980;24.336;2022-07-18T05:54:57;7.85;;;3.00;;
28653;SDS011;24320;56.980;24.336;2022-07-18T05:57:24;6.75;;;3.10;;
28653;SDS011;24320;56.980;24.336;2022-07-18T05:59:51;6.28;;;2.72;;
28653;SDS011;24320;56.980;24.336;2022-07-18T06:02:18;11.70;;;3.60;;
28653;SDS011;24320;56.980;24.336;2022-07-18T06:04:45;9.07;;;3.05;;
28653;SDS011;24320;56.980;24.336;2022-07-18T06:07:32;5.50;;;2.88;;
28653;SDS011;24320;56.980;24.336;2022-07-18T06:09:59;6.95;;;2.80;;
28653;SDS011;24320;56.980;24.336;2022-07-18T06:12:29;8.75;;;3.05;;
28653;SDS011;24320;56.980;24.336;2022-07-18T06:14:58;6.38;;;2.75;;
28653;SDS011;24320;56.980;24.336;2022-07-18T06:17:25;12.30;;;3.38;;
28653;SDS011;24320;56.980;24.336;2022-07-18T06:19:55;9.15;;;4.03;;
28653;SDS011;24320;56.980;24.336;2022-07-18T06:22:23;10.90;;;3.63;;
28653;SDS011;24320;56.980;24.336;2022-07-18T06:24:50;13.38;;;4.38;;
28653;SDS011;24320;56.980;24.336;2022-07-18T06:27:17;7.75;;;3.47;;
28653;SDS011;24320;56.980;24.336;2022-07-18T06:29:45;8.20;;;3.60;;
28653;SDS011;24320;56.980;24.336;2022-07-18T06:32:12;6.50;;;3.95;;
28653;SDS011;24320;56.980;24.336;2022-07-18T06:34:39;7.20;;;3.40;;
28653;SDS011;24320;56.980;24.336;2022-07-18T06:37:06;5.80;;;3.28;;
28653;SDS011;24320;56.980;24.336;2022-07-18T06:39:33;7.63;;;3.63;;
28653;SDS011;24320;56.980;24.336;2022-07-18T06:42:00;5.63;;;3.65;;
28653;SDS011;24320;56.980;24.336;2022-07-18T06:44:27;8.20;;;3.50;;
28653;SDS011;24320;56.980;24.336;2022-07-18T06:46:54;8.40;;;4.20;;
28653;SDS011;24320;56.980;24.336;2022-07-18T06:49:21;11.48;;;3.78;;
28653;SDS011;24320;56.980;24.336;2022-07-18T06:51:48;8.52;;;4.03;;
28653;SDS011;24320;56.980;24.336;2022-07-18T06:54:15;12.85;;;4.50;;
28653;SDS011;24320;56.980;24.336;2022-07-18T06:56:42;8.43;;;3.97;;
28653;SDS011;24320;56.980;24.336;2022-07-18T06:59:09;7.53;;;3.72;;
28653;SDS011;24320;56.980;24.336;2022-07-18T07:01:36;8.95;;;3.40;;
28653;SDS011;24320;56.980;24.336;2022-07-18T07:04:03;10.13;;;4.10;;
28653;SDS011;24320;56.980;24.336;2022-07-18T07:06:30;4.47;;;3.10;;
28653;SDS011;24320;56.980;24.336;2022-07-18T07:08:57;6.78;;;2.78;;
28653;SDS011;24320;56.980;24.336;2022-07-18T07:11:24;4.97;;;2.80;;
28653;SDS011;24320;56.980;24.336;2022-07-18T07:13:51;6.32;;;2.45;;
28653;SDS011;24320;56.980;24.336;2022-07-18T07:16:19;8.95;;;3.13;;
28653;SDS011;24320;56.980;24.336;2022-07-18T07:18:46;4.00;;;2.45;;
28653;SDS011;24320;56.980;24.336;2022-07-18T07:21:13;4.18;;;2.65;;
28653;SDS011;24320;56.980;24.336;2022-07-18T07:23:45;12.80;;;2.97;;
28653;SDS011;24320;56.980;24.336;2022-07-18T07:26:12;5.40;;;2.72;;
28653;SDS011;24320;56.980;24.336;2022-07-18T07:28:39;8.15;;;2.75;;
28653;SDS011;24320;56.980;24.336;2022-07-18T07:31:06;6.40;;;3.25;;
28653;SDS011;24320;56.980;24.336;2022-07-18T07:33:34;10.95;;;3.08;;
28653;SDS011;24320;56.980;24.336;2022-07-18T07:36:01;5.18;;;2.85;;
28653;SDS011;24320;56.980;24.336;2022-07-18T07:38:29;8.43;;;2.90;;
28653;SDS011;24320;56.980;24.336;2022-07-18T07:40:56;6.78;;;2.63;;
28653;SDS011;24320;56.980;24.336;2022-07-18T07:45:54;7.75;;;2.83;;
28653;SDS011;24320;56.980;24.336;2022-07-18T07:48:22;4.18;;;2.47;;
28653;SDS011;24320;56.980;24.336;2022-07-18T07:50:50;4.38;;;2.60;;
28653;SDS011;24320;56.980;24.336;2022-07-18T07:53:17;5.93;;;2.90;;
28653;SDS011;24320;56.980;24.336;2022-07-18T07:55:44;5.57;;;3.03;;
28653;SDS011;24320;56.980;24.336;2022-07-18T07:58:11;5.90;;;2.95;;
28653;SDS011;24320;56.980;24.336;2022-07-18T08:00:38;8.43;;;3.20;;
28653;SDS011;24320;56.980;24.336;2022-07-18T08:03:06;9.05;;;2.80;;
28653;SDS011;24320;56.980;24.336;2022-07-18T08:05:35;6.53;;;2.60;;
28653;SDS011;24320;56.980;24.336;2022-07-18T08:08:10;6.03;;;3.05;;
28653;SDS011;24320;56.980;24.336;2022-07-18T08:10:37;5.40;;;3.38;;
28653;SDS011;24320;56.980;24.336;2022-07-18T08:13:10;5.57;;;2.90;;
28653;SDS011;24320;56.980;24.336;2022-07-18T08:15:41;3.75;;;2.97;;
28653;SDS011;24320;56.980;24.336;2022-07-18T08:18:08;8.52;;;3.38;;
28653;SDS011;24320;56.980;24.336;2022-07-18T08:20:35;11.05;;;4.20;;
28653;SDS011;24320;56.980;24.336;2022-07-18T08:23:04;13.65;;;4.65;;
28653;SDS011;24320;56.980;24.336;2022-07-18T08:25:34;9.13;;;4.15;;
28653;SDS011;24320;56.980;24.336;2022-07-18T08:28:02;7.85;;;4.20;;
28653;SDS011;24320;56.980;24.336;2022-07-18T08:30:32;7.53;;;4.25;;
28653;SDS011;24320;56.980;24.336;2022-07-18T08:32:59;11.70;;;5.57;;
28653;SDS011;24320;56.980;24.336;2022-07-18T08:35:30;8.45;;;4.40;;
28653;SDS011;24320;56.980;24.336;2022-07-18T08:37:58;10.65;;;5.55;;
28653;SDS011;24320;56.980;24.336;2022-07-18T08:40:26;9.43;;;4.20;;
28653;SDS011;24320;56.980;24.336;2022-07-18T08:42:54;10.40;;;4.78;;
28653;SDS011;24320;56.980;24.336;2022-07-18T08:45:42;7.88;;;4.53;;
28653;SDS011;24320;56.980;24.336;2022-07-18T08:48:13;11.48;;;4.00;;
28653;SDS011;24320;56.980;24.336;2022-07-18T08:50:44;7.70;;;4.25;;
28653;SDS011;24320;56.980;24.336;2022-07-18T08:53:12;7.32;;;4.55;;
28653;SDS011;24320;56.980;24.336;2022-07-18T08:55:40;9.10;;;3.67;;
28653;SDS011;24320;56.980;24.336;2022-07-18T08:58:07;7.72;;;3.90;;
28653;SDS011;24320;56.980;24.336;2022-07-18T09:00:56;8.40;;;4.80;;
28653;SDS011;24320;56.980;24.336;2022-07-18T09:03:26;10.60;;;4.05;;
28653;SDS011;24320;56.980;24.336;2022-07-18T09:06:09;9.45;;;4.68;;
28653;SDS011;24320;56.980;24.336;2022-07-18T09:08:39;9.90;;;4.78;;
28653;SDS011;24320;56.980;24.336;2022-07-18T09:11:22;7.72;;;4.20;;
28653;SDS011;24320;56.980;24.336;2022-07-18T09:14:19;13.30;;;5.13;;
28653;SDS011;24320;56.980;24.336;2022-07-18T09:19:33;9.40;;;3.92;;
28653;SDS011;24320;56.980;24.336;2022-07-18T09:27:41;8.88;;;3.60;;
28653;SDS011;24320;56.980;24.336;2022-07-18T09:32:45;12.50;;;3.88;;
28653;SDS011;24320;56.980;24.336;2022-07-18T09:35:15;8.35;;;3.60;;
28653;SDS011;24320;56.980;24.336;2022-07-18T09:38:00;6.93;;;3.92;;
28653;SDS011;24320;56.980;24.336;2022-07-18T09:40:38;9.45;;;4.47;;
28653;SDS011;24320;56.980;24.336;2022-07-18T09:43:07;12.90;;;3.67;;
28653;SDS011;24320;56.980;24.336;2022-07-18T09:48:08;7.93;;;3.45;;
28653;SDS011;24320;56.980;24.336;2022-07-18T09:50:38;6.90;;;3.60;;
28653;SDS011;24320;56.980;24.336;2022-07-18T09:56:01;6.57;;;3.20;;
28653;SDS011;24320;56.980;24.336;2022-07-18T09:58:33;4.35;;;3.20;;
28653;SDS011;24320;56.980;24.336;2022-07-18T10:01:03;12.07;;;3.70;;
28653;SDS011;24320;56.980;24.336;2022-07-18T10:03:32;8.52;;;3.55;;
28653;SDS011;24320;56.980;24.336;2022-07-18T10:06:01;9.38;;;4.40;;
28653;SDS011;24320;56.980;24.336;2022-07-18T10:08:31;10.20;;;3.67;;
28653;SDS011;24320;56.980;24.336;2022-07-18T10:10:59;10.83;;;3.77;;
28653;SDS011;24320;56.980;24.336;2022-07-18T10:13:28;7.68;;;3.80;;
28653;SDS011;24320;56.980;24.336;2022-07-18T10:15:56;11.63;;;3.60;;
28653;SDS011;24320;56.980;24.336;2022-07-18T10:18:25;8.02;;;3.60;;
28653;SDS011;24320;56.980;24.336;2022-07-18T10:21:10;7.73;;;3.97;;
28653;SDS011;24320;56.980;24.336;2022-07-18T10:23:45;10.40;;;3.30;;
28653;SDS011;24320;56.980;24.336;2022-07-18T10:26:21;9.15;;;4.18;;
28653;SDS011;24320;56.980;24.336;2022-07-18T10:31:24;8.37;;;3.40;;
28653;SDS011;24320;56.980;24.336;2022-07-18T10:36:31;12.57;;;3.90;;
28653;SDS011;24320;56.980;24.336;2022-07-18T10:39:04;4.22;;;3.35;;
28653;SDS011;24320;56.980;24.336;2022-07-18T11:00:14;7.22;;;3.15;;
28653;SDS011;24320;56.980;24.336;2022-07-18T11:03:04;5.53;;;3.35;;
28653;SDS011;24320;56.980;24.336;2022-07-18T11:13:47;6.97;;;3.83;;
28653;SDS011;24320;56.980;24.336;2022-07-18T11:16:13;8.80;;;3.80;;
28653;SDS011;24320;56.980;24.336;2022-07-18T11:23:44;4.78;;;2.22;;
28653;SDS011;24320;56.980;24.336;2022-07-18T11:26:21;4.50;;;2.40;;
28653;SDS011;24320;56.980;24.336;2022-07-18T11:29:09;5.22;;;2.15;;
28653;SDS011;24320;56.980;24.336;2022-07-18T11:34:18;6.47;;;2.30;;
28653;SDS011;24320;56.980;24.336;2022-07-18T11:37:01;5.43;;;2.33;;
28653;SDS011;24320;56.980;24.336;2022-07-18T11:39:29;4.60;;;2.83;;
28653;SDS011;24320;56.980;24.336;2022-07-18T11:41:58;5.97;;;2.63;;
28653;SDS011;24320;56.980;24.336;2022-07-18T11:44:25;4.55;;;2.30;;
28653;SDS011;24320;56.980;24.336;2022-07-18T11:47:28;8.93;;;3.30;;
28653;SDS011;24320;56.980;24.336;2022-07-18T11:49:55;6.07;;;3.15;;
28653;SDS011;24320;56.980;24.336;2022-07-18T11:52:22;5.90;;;3.58;;
28653;SDS011;24320;56.980;24.336;2022-07-18T11:54:57;3.65;;;2.95;;
28653;SDS011;24320;56.980;24.336;2022-07-18T11:57:27;8.55;;;3.45;;
28653;SDS011;24320;56.980;24.336;2022-07-18T11:59:55;4.32;;;3.33;;
28653;SDS011;24320;56.980;24.336;2022-07-18T12:05:34;7.05;;;3.75;;
28653;SDS011;24320;56.980;24.336;2022-07-18T12:13:46;12.10;;;3.63;;
28653;SDS011;24320;56.980;24.336;2022-07-18T12:19:10;7.40;;;4.55;;
28653;SDS011;24320;56.980;24.336;2022-07-18T12:21:54;13.18;;;4.15;;
28653;SDS011;24320;56.980;24.336;2022-07-18T12:30:17;4.65;;;2.67;;
28653;SDS011;24320;56.980;24.336;2022-07-18T12:37:41;5.90;;;2.40;;
28653;SDS011;24320;56.980;24.336;2022-07-18T12:40:17;7.95;;;2.53;;
28653;SDS011;24320;56.980;24.336;2022-07-18T12:43:01;4.82;;;1.90;;
28653;SDS011;24320;56.980;24.336;2022-07-18T12:45:30;8.00;;;2.45;;
28653;SDS011;24320;56.980;24.336;2022-07-18T12:47:57;3.80;;;1.90;;
28653;SDS011;24320;56.980;24.336;2022-07-18T12:50:25;5.00;;;2.45;;
28653;SDS011;24320;56.980;24.336;2022-07-18T12:52:52;4.38;;;1.88;;
28653;SDS011;24320;56.980;24.336;2022-07-18T12:55:19;4.88;;;2.30;;
28653;SDS011;24320;56.980;24.336;2022-07-18T12:57:52;2.30;;;1.25;;
28653;SDS011;24320;56.980;24.336;2022-07-18T13:08:01;4.78;;;1.45;;
28653;SDS011;24320;56.980;24.336;2022-07-18T13:10:28;3.80;;;1.25;;
28653;SDS011;24320;56.980;24.336;2022-07-18T13:12:56;3.45;;;1.45;;
28653;SDS011;24320;56.980;24.336;2022-07-18T13:15:23;4.00;;;1.40;;
28653;SDS011;24320;56.980;24.336;2022-07-18T13:17:50;4.50;;;1.50;;
28653;SDS011;24320;56.980;24.336;2022-07-18T13:20:17;3.58;;;1.40;;
28653;SDS011;24320;56.980;24.336;2022-07-18T13:22:45;2.97;;;1.20;;
28653;SDS011;24320;56.980;24.336;2022-07-18T13:25:18;3.00;;;0.93;;
28653;SDS011;24320;56.980;24.336;2022-07-18T13:27:46;1.88;;;0.75;;
28653;SDS011;24320;56.980;24.336;2022-07-18T13:30:13;1.05;;;0.90;;
28653;SDS011;24320;56.980;24.336;2022-07-18T13:32:40;2.55;;;0.70;;
28653;SDS011;24320;56.980;24.336;2022-07-18T13:35:11;1.90;;;0.63;;
28653;SDS011;24320;56.980;24.336;2022-07-18T13:37:38;1.10;;;0.80;;
28653;SDS011;24320;56.980;24.336;2022-07-18T13:42:36;1.05;;;0.77;;
28653;SDS011;24320;56.980;24.336;2022-07-18T13:45:04;1.50;;;0.70;;
28653;SDS011;24320;56.980;24.336;2022-07-18T13:47:32;1.38;;;0.70;;
28653;SDS011;24320;56.980;24.336;2022-07-18T13:49:59;1.80;;;0.60;;
28653;SDS011;24320;56.980;24.336;2022-07-18T13:52:26;3.22;;;0.80;;
28653;SDS011;24320;56.980;24.336;2022-07-18T13:54:53;3.75;;;0.80;;
28653;SDS011;24320;56.980;24.336;2022-07-18T13:57:21;1.65;;;0.70;;
28653;SDS011;24320;56.980;24.336;2022-07-18T13:59:48;0.65;;;0.60;;
28653;SDS011;24320;56.980;24.336;2022-07-18T14:02:16;0.73;;;0.60;;
28653;SDS011;24320;56.980;24.336;2022-07-18T14:04:44;1.20;;;0.80;;
28653;SDS011;24320;56.980;24.336;2022-07-18T14:07:31;2.28;;;0.63;;
28653;SDS011;24320;56.980;24.336;2022-07-18T14:09:58;0.60;;;0.60;;
28653;SDS011;24320;56.980;24.336;2022-07-18T14:12:26;2.33;;;0.77;;
28653;SDS011;24320;56.980;24.336;2022-07-18T14:14:53;0.70;;;0.70;;
28653;SDS011;24320;56.980;24.336;2022-07-18T14:17:20;2.53;;;0.90;;
28653;SDS011;24320;56.980;24.336;2022-07-18T14:19:47;3.58;;;1.00;;
28653;SDS011;24320;56.980;24.336;2022-07-18T14:22:14;2.53;;;0.70;;
28653;SDS011;24320;56.980;24.336;2022-07-18T14:24:41;2.00;;;0.98;;
28653;SDS011;24320;56.980;24.336;2022-07-18T14:27:08;1.77;;;1.02;;
28653;SDS011;24320;56.980;24.336;2022-07-18T14:29:35;1.85;;;1.00;;
28653;SDS011;24320;56.980;24.336;2022-07-18T14:32:03;1.05;;;0.80;;
28653;SDS011;24320;56.980;24.336;2022-07-18T14:34:30;2.42;;;0.80;;
28653;SDS011;24320;56.980;24.336;2022-07-18T14:36:57;1.25;;;0.90;;
28653;SDS011;24320;56.980;24.336;2022-07-18T14:39:24;2.08;;;0.90;;
28653;SDS011;24320;56.980;24.336;2022-07-18T14:41:52;3.67;;;0.90;;
28653;SDS011;24320;56.980;24.336;2022-07-18T14:44:20;1.42;;;1.10;;
28653;SDS011;24320;56.980;24.336;2022-07-18T14:46:46;2.50;;;0.90;;
28653;SDS011;24320;56.980;24.336;2022-07-18T14:49:14;4.07;;;1.10;;
28653;SDS011;24320;56.980;24.336;2022-07-18T14:51:41;1.40;;;0.90;;
28653;SDS011;24320;56.980;24.336;2022-07-18T14:54:08;3.72;;;1.35;;
28653;SDS011;24320;56.980;24.336;2022-07-18T14:56:37;2.35;;;1.33;;
28653;SDS011;24320;56.980;24.336;2022-07-18T14:59:04;2.33;;;0.98;;
28653;SDS011;24320;56.980;24.336;2022-07-18T15:01:31;2.47;;;0.70;;
28653;SDS011;24320;56.980;24.336;2022-07-18T15:06:38;1.45;;;0.93;;
28653;SDS011;24320;56.980;24.336;2022-07-18T15:09:06;1.20;;;0.82;;
28653;SDS011;24320;56.980;24.336;2022-07-18T15:11:35;1.40;;;0.90;;
28653;SDS011;24320;56.980;24.336;2022-07-18T15:14:02;1.98;;;0.70;;
28653;SDS011;24320;56.980;24.336;2022-07-18T15:16:29;1.02;;;0.73;;
28653;SDS011;24320;56.980;24.336;2022-07-18T15:18:56;3.38;;;0.80;;
28653;SDS011;24320;56.980;24.336;2022-07-18T15:21:24;2.08;;;0.93;;
28653;SDS011;24320;56.980;24.336;2022-07-18T15:23:51;1.63;;;0.82;;
28653;SDS011;24320;56.980;24.336;2022-07-18T15:26:18;0.70;;;0.70;;
28653;SDS011;24320;56.980;24.336;2022-07-18T15:28:45;1.58;;;0.80;;
28653;SDS011;24320;56.980;24.336;2022-07-18T15:31:12;2.40;;;1.05;;
28653;SDS011;24320;56.980;24.336;2022-07-18T15:33:40;1.98;;;0.90;;
28653;SDS011;24320;56.980;24.336;2022-07-18T15:36:07;2.05;;;1.10;;
28653;SDS011;24320;56.980;24.336;2022-07-18T15:38:34;1.95;;;0.80;;
28653;SDS011;24320;56.980;24.336;2022-07-18T15:41:05;1.30;;;0.88;;
28653;SDS011;24320;56.980;24.336;2022-07-18T15:43:33;2.72;;;0.88;;
28653;SDS011;24320;56.980;24.336;2022-07-18T15:46:00;1.05;;;0.60;;
28653;SDS011;24320;56.980;24.336;2022-07-18T15:48:28;3.42;;;0.73;;
28653;SDS011;24320;56.980;24.336;2022-07-18T15:50:55;1.23;;;0.80;;
28653;SDS011;24320;56.980;24.336;2022-07-18T15:53:22;0.80;;;0.60;;
28653;SDS011;24320;56.980;24.336;2022-07-18T15:55:49;0.90;;;0.80;;
28653;SDS011;24320;56.980;24.336;2022-07-18T15:58:16;0.50;;;0.50;;
28653;SDS011;24320;56.980;24.336;2022-07-18T16:00:43;1.75;;;0.70;;
28653;SDS011;24320;56.980;24.336;2022-07-18T16:03:10;0.60;;;0.60;;
28653;SDS011;24320;56.980;24.336;2022-07-18T16:05:37;2.20;;;1.02;;
28653;SDS011;24320;56.980;24.336;2022-07-18T16:08:04;4.15;;;1.40;;
28653;SDS011;24320;56.980;24.336;2022-07-18T16:10:31;0.73;;;0.70;;
28653;SDS011;24320;56.980;24.336;2022-07-18T16:12:58;3.38;;;0.80;;
28653;SDS011;24320;56.980;24.336;2022-07-18T16:15:25;3.28;;;1.33;;